ADDS METAR Data INFO
IDs: Format: Raw Decoded Include TAF

Data at: 0254 UTC 21 Jan 2018

KMHS 210156Z AUTO 05003KT 10SM CLR 00/M03 A3016 RMK AO2 SLP253 T00001033
KMHS 210056Z AUTO 00000KT 10SM CLR 02/M03 A3015 RMK AO2 SLP246 T00221033
KMHS 202356Z AUTO VRB05KT 10SM CLR 04/M04 A3013 RMK AO2 SLP239 T00441044 10061 20017 53003
KMHS 202256Z AUTO VRB03KT 10SM CLR 06/M05 A3013 RMK AO2 SLP233 T00561050
KMHS 202156Z AUTO VRB06KT 10SM CLR 05/M06 A3012 RMK AO2 SLP232 T00501056
KMHS 202056Z AUTO VRB05KT 10SM CLR 05/M03 A3012 RMK AO2 SLP233 T00501033 58006
KMHS 201956Z AUTO VRB05KT 10SM CLR 04/M03 A3013 RMK AO2 SLP239 T00391033
KMHS 201856Z AUTO 32004KT 10SM CLR 03/M03 A3014 RMK AO2 SLP243 T00281033
KMHS 201756Z AUTO VRB04KT 10SM FEW030 02/M02 A3014 RMK AO2 SLP244 T00171017 10017 21033 51017
KMHS 201656Z AUTO 00000KT 10SM SCT033 00/M03 A3013 RMK AO2 SLP242 T00001028
KMHS 201556Z AUTO 00000KT 10SM CLR M02/M04 A3011 RMK AO2 SLP236 T10171039
KMHS 201456Z AUTO VRB03KT 10SM SCT120 M01/M03 A3009 RMK AO2 SLP227 T10111033 53008
KMHS 201356Z AUTO VRB04KT 10SM CLR M02/M03 A3008 RMK AO2 SLP224 T10171033
KMHS 201256Z AUTO 00000KT 10SM CLR M03/M05 A3007 RMK AO2 SLP219 T10281050
KMHS 201156Z AUTO 00000KT 10SM CLR M02/M04 A3006 RMK AO2 SLP215 I6000 T10221039 11011 21028 58000
KMHS 201056Z AUTO 31003KT 10SM BKN036 M01/M03 A3007 RMK AO2 SLP215 T10111033
KMHS 200956Z AUTO 05003KT 10SM CLR M02/M04 A3007 RMK AO2 SLP216 T10221039
KMHS 200856Z AUTO 00000KT 10SM CLR M02/M04 A3006 RMK AO2 SLP214 I3000 T10171039 50003
KMHS 200756Z AUTO 06003KT 10SM CLR M02/M04 A3007 RMK AO2 SLP217 T10221039 400501028
KMHS 200656Z AUTO 00000KT 10SM CLR M02/M03 A3006 RMK AO2 SLP215 I1000 T10171033
KMHS 200556Z AUTO 00000KT 10SM FEW046 M01/M03 A3005 RMK AO2 SLP213 T10111028 10039 21017 51006
KMHS 200456Z AUTO 00000KT 10SM BKN050 M02/M03 A3005 RMK AO2 SLP215 T10171028
KMHS 200356Z AUTO 00000KT 10SM CLR M02/M03 A3004 RMK AO2 SLP212 T10171028
KMHS 200256Z AUTO 00000KT 10SM FEW024 BKN045 M01/M02 A3003 RMK AO2 SLP208 T10061017 53010
KMHS 200249Z AUTO 00000KT 10SM SCT024 BKN045 M01/M02 A3003 RMK AO2 T10061017
KMHS 200217Z AUTO 00000KT 10SM BKN024 00/M01 A3002 RMK AO2 T00001011
KMHS 200156Z AUTO 00000KT 10SM CLR 01/M01 A3002 RMK AO2 SLP202 T00061011
KMHS 200056Z AUTO 00000KT 10SM FEW024 BKN035 BKN045 03/M01 A3000 RMK AO2 SLP194 T00281006
KMHS 192356Z AUTO 00000KT 10SM FEW023 FEW055 03/M01 A3000 RMK AO2 SLP191 T00281006 10050 20006 55004
KMHS 192256Z AUTO 00000KT 10SM CLR 04/M01 A2999 RMK AO2 SLP187 T00391011
KMHS 192156Z AUTO 00000KT 10SM BKN055 BKN070 04/M02 A3000 RMK AO2 SLP190 T00391017
KMHS 192056Z AUTO VRB03KT 10SM BKN033 BKN046 03/M01 A3002 RMK AO2 SLP195 T00331006 58006
KMHS 191956Z AUTO VRB03KT 10SM SCT050 BKN075 03/M01 A3003 RMK AO2 SLP201 T00281011
KMHS 191856Z AUTO 00000KT 10SM OVC050 02/M01 A3004 RMK AO2 SLP205 T00221006
KMHS 191756Z AUTO 00000KT 10SM FEW004 BKN060 BKN090 01/01 A3003 RMK AO2 SLP202 I1000 I6000 T00110006 10011 21011 51017
KMHS 191747Z AUTO 00000KT 10SM SCT004 BKN060 BKN090 00/00 A3003 RMK AO2 I1000 T00000000
KMHS 191720Z AUTO 00000KT 10SM BKN003 BKN055 00/00 A3003 RMK AO2 I1000 T00000000
KMHS 191712Z AUTO 00000KT 10SM SCT003 BKN055 00/M01 A3002 RMK AO2 T00001006
KMHS 191656Z AUTO 00000KT 10SM BKN002 BKN050 M01/M01 A3002 RMK AO2 SLP198 T10061011
KMHS 191643Z AUTO 00000KT 10SM BKN002 OVC012 M01/M01 A3001 RMK AO2 T10061006
KMHS 191617Z AUTO 00000KT 10SM SCT003 OVC011 M01/M01 A3001 RMK AO2 T10061011
KMHS 191556Z AUTO 00000KT 10SM BKN002 OVC011 M01/M01 A3000 RMK AO2 SLP192 T10061011
KMHS 191456Z AUTO 00000KT 6SM BR OVC002 M01/M01 A2998 RMK AO2 SLP185 I3000 T10111011 53010